Aviation Digital Data Service (ADDS)

Output produced by METARs form (2055 UTC 29 May 2017)
found at http://www.aviationweather.gov/adds/metars/
 
TKPK 291732Z 2918/3018 08012KT P6SM VCSH SCT020 BKN040 AMD NOT SKED 3002/3011
       
TAF TKPN 291745Z 2918/3018 10010KT 9999 SCT020 
     PROB40 
     TEMPO 2918/2924 SHRA 
     TEMPO 3000/3018 SHRA FEW012CB BKN017 
     PROB30 
     TEMPO 3012/3018 4800 TSRA